Time;durP1;ratioP1;P1;durP2;ratioP2;P2;SDS_P1;SDS_P2;PMS_P1;PMS_P2;Temp;Humidity;BMP_temperature;BMP_pressure;BME280_temperature;BME280_humidity;BME280_pressure;Samples;Min_cycle;Max_cycle;Signal;HPM_P1;HPM_P2
2024/03/12 00:01:08;;;;;;;14.50;4.90;;;;;;;3.23;41.20;101423.38;105777;1260;63782;-69
2024/03/12 00:03:43;;;;;;;12.60;5.50;;;;;;;3.22;41.40;101424.09;106345;1260;61578;-67
2024/03/12 00:06:11;;;;;;;10.50;5.30;;;;;;;3.24;41.49;101418.66;106239;1254;62474;-64
2024/03/12 00:08:39;;;;;;;12.90;4.00;;;;;;;3.25;41.48;101417.75;106294;1253;60482;-65
2024/03/12 00:11:07;;;;;;;18.20;8.00;;;;;;;3.24;41.64;101416.05;106196;1254;60374;-66
2024/03/12 00:13:36;;;;;;;13.10;5.00;;;;;;;3.22;41.81;101411.45;109169;1254;63620;-63
2024/03/12 00:16:05;;;;;;;13.90;5.80;;;;;;;3.20;41.77;101410.81;107885;1258;60107;-65
2024/03/12 00:18:33;;;;;;;12.20;5.10;;;;;;;3.18;41.74;101411.39;106459;1255;62625;-66
2024/03/12 00:21:02;;;;;;;14.50;5.40;;;;;;;3.17;41.81;101412.99;106231;1254;60315;-65
2024/03/12 00:23:30;;;;;;;15.60;6.40;;;;;;;3.15;41.96;101412.70;106133;1254;60491;-63
2024/03/12 00:25:57;;;;;;;13.80;7.60;;;;;;;3.13;42.06;101410.35;106058;1254;63715;-64
2024/03/12 00:28:25;;;;;;;12.90;6.30;;;;;;;3.11;42.06;101410.09;106259;1259;60501;-62
2024/03/12 00:30:56;;;;;;;15.30;6.40;;;;;;;3.09;42.08;101411.86;106137;1259;63706;-64
2024/03/12 00:33:24;;;;;;;16.40;6.00;;;;;;;3.08;42.18;101413.29;106203;1254;60514;-62
2024/03/12 00:35:52;;;;;;;16.30;6.70;;;;;;;3.07;42.28;101407.25;106012;1259;59135;-63
2024/03/12 00:38:20;;;;;;;12.10;6.20;;;;;;;3.06;42.47;101406.41;106146;1254;64924;-64
2024/03/12 00:40:49;;;;;;;14.70;6.60;;;;;;;3.05;42.55;101404.87;106118;1260;60408;-66
2024/03/12 00:43:17;;;;;;;18.70;7.30;;;;;;;3.04;42.57;101404.22;106091;1254;63740;-65
2024/03/12 00:45:46;;;;;;;14.90;6.10;;;;;;;3.04;42.66;101403.19;106247;1254;61001;-64
2024/03/12 00:48:15;;;;;;;13.50;7.00;;;;;;;3.03;42.69;101401.14;106279;1254;60585;-65
2024/03/12 00:50:46;;;;;;;12.30;5.80;;;;;;;3.02;42.71;101402.05;106147;1254;63801;-65
2024/03/12 00:53:13;;;;;;;12.10;5.90;;;;;;;3.02;42.70;101402.23;106081;1254;61866;-69
2024/03/12 00:55:42;;;;;;;17.60;8.40;;;;;;;3.02;42.74;101397.86;106137;1259;62630;-68
2024/03/12 00:58:10;;;;;;;13.30;6.20;;;;;;;3.03;42.71;101394.21;105877;1259;60453;-68
2024/03/12 01:00:40;;;;;;;17.30;7.60;;;;;;;3.02;42.72;101393.20;106112;1254;60872;-68
2024/03/12 01:03:08;;;;;;;14.00;6.50;;;;;;;3.02;42.84;101389.39;106383;1259;65340;-65
2024/03/12 01:05:37;;;;;;;14.20;6.10;;;;;;;3.01;42.77;101390.13;106056;1254;68980;-65
2024/03/12 01:08:07;;;;;;;12.40;5.60;;;;;;;2.99;42.78;101386.02;106110;1254;63718;-66
2024/03/12 01:10:36;;;;;;;14.70;5.30;;;;;;;2.97;42.80;101384.33;106418;1254;60540;-66
2024/03/12 01:13:08;;;;;;;12.00;5.60;;;;;;;2.97;42.90;101386.77;106168;1254;60335;-67
2024/03/12 01:15:48;;;;;;;12.40;7.00;;;;;;;2.96;42.98;101385.23;106107;1259;72921;-66
2024/03/12 01:18:15;;;;;;;18.10;6.20;;;;;;;2.96;43.12;101381.27;106191;1259;60510;-66
2024/03/12 01:20:43;;;;;;;12.80;5.00;;;;;;;2.94;43.29;101382.71;106219;1254;62472;-67
2024/03/12 01:23:14;;;;;;;13.90;7.50;;;;;;;2.93;43.40;101378.40;106044;1257;60431;-66
2024/03/12 01:25:42;;;;;;;10.20;5.60;;;;;;;2.93;43.31;101375.30;105094;1254;60457;-65
2024/03/12 01:28:10;;;;;;;11.00;5.00;;;;;;;2.94;43.27;101377.67;105319;1254;63977;-65
2024/03/12 01:30:39;;;;;;;13.10;4.90;;;;;;;2.94;43.32;101375.60;106040;1254;60466;-67
2024/03/12 01:33:07;;;;;;;13.30;6.60;;;;;;;2.93;43.37;101378.23;106214;1254;62545;-66
2024/03/12 01:35:38;;;;;;;12.40;6.90;;;;;;;2.93;43.54;101375.27;106108;1254;60456;-66
2024/03/12 01:38:08;;;;;;;12.40;5.80;;;;;;;2.92;43.51;101373.57;106168;1259;60380;-66
2024/03/12 01:40:39;;;;;;;13.80;6.70;;;;;;;2.93;43.58;101372.36;106116;1254;63715;-65
2024/03/12 01:43:07;;;;;;;10.80;5.60;;;;;;;2.92;43.63;101367.52;106055;1258;60360;-69
2024/03/12 01:45:35;;;;;;;15.60;7.60;;;;;;;2.91;43.77;101366.70;106027;1254;64285;-69
2024/03/12 01:48:07;;;;;;;16.10;6.20;;;;;;;2.90;43.87;101364.30;106169;1253;60351;-63
2024/03/12 01:50:37;;;;;;;12.80;6.50;;;;;;;2.90;43.88;101365.15;107099;1259;60380;-69
2024/03/12 01:53:05;;;;;;;16.70;7.00;;;;;;;2.91;43.93;101364.27;106051;1254;63807;-69
2024/03/12 01:55:34;;;;;;;17.40;7.10;;;;;;;2.91;43.80;101362.17;106063;1253;61409;-68
2024/03/12 01:58:02;;;;;;;13.70;6.90;;;;;;;2.91;43.70;101362.35;106230;1259;63629;-67
2024/03/12 02:00:32;;;;;;;16.30;6.90;;;;;;;2.92;43.75;101360.59;106172;1260;60450;-67
2024/03/12 02:03:01;;;;;;;12.40;5.80;;;;;;;2.93;43.63;101360.90;106118;1258;59191;-64
2024/03/12 02:05:30;;;;;;;15.30;5.70;;;;;;;2.92;43.61;101363.70;106251;1254;63770;-63
2024/03/12 02:07:57;;;;;;;14.20;6.10;;;;;;;2.92;43.60;101359.21;106092;1258;61516;-64
2024/03/12 02:10:25;;;;;;;15.20;6.00;;;;;;;2.93;43.54;101359.69;106153;1257;62568;-66
2024/03/12 02:12:54;;;;;;;15.70;6.40;;;;;;;2.92;43.55;101358.67;106248;1254;60533;-65
2024/03/12 02:15:22;;;;;;;18.60;7.60;;;;;;;2.93;43.45;101355.88;106186;1256;60364;-62
2024/03/12 02:17:53;;;;;;;15.70;6.30;;;;;;;2.93;43.54;101353.11;106206;1258;64915;-65
2024/03/12 02:20:21;;;;;;;18.30;6.20;;;;;;;2.94;43.78;101352.20;106761;1257;61593;-66
2024/03/12 02:22:55;;;;;;;13.70;6.60;;;;;;;2.95;43.76;101347.50;106156;1259;62952;-64
2024/03/12 02:25:23;;;;;;;14.20;6.10;;;;;;;2.95;43.82;101342.98;106004;1253;60465;-63
2024/03/12 02:27:51;;;;;;;14.20;6.10;;;;;;;2.95;43.88;101335.17;106099;1260;61168;-64
2024/03/12 02:30:20;;;;;;;14.50;6.20;;;;;;;2.95;43.98;101334.13;106064;1259;65231;-62
2024/03/12 02:32:49;;;;;;;11.60;5.40;;;;;;;2.94;43.98;101334.67;106243;1259;61564;-64
2024/03/12 02:35:17;;;;;;;15.20;5.80;;;;;;;2.95;43.85;101331.38;106104;1254;62459;-64
2024/03/12 02:37:45;;;;;;;16.00;6.00;;;;;;;2.94;43.84;101332.27;106147;1255;60831;-66
2024/03/12 02:40:13;;;;;;;17.50;6.20;;;;;;;2.93;43.87;101334.38;106042;1253;60419;-65
2024/03/12 02:42:43;;;;;;;14.20;5.50;;;;;;;2.92;43.85;101331.98;106116;1259;64957;-64
2024/03/12 02:45:14;;;;;;;11.20;5.60;;;;;;;2.90;43.66;101330.33;106010;1257;60417;-65
2024/03/12 02:47:47;;;;;;;12.90;5.70;;;;;;;2.87;43.57;101328.70;106137;1260;62509;-63
2024/03/12 02:50:15;;;;;;;12.80;4.90;;;;;;;2.85;43.53;101325.64;106128;1254;60564;-61
2024/03/12 02:52:44;;;;;;;14.90;6.20;;;;;;;2.84;43.54;101323.77;106284;1259;60360;-64
2024/03/12 02:55:13;;;;;;;14.50;5.70;;;;;;;2.84;43.58;101325.14;106134;1254;63644;-65
2024/03/12 02:57:41;;;;;;;10.40;6.20;;;;;;;2.84;43.63;101324.80;106230;1260;69222;-63
2024/03/12 03:00:11;;;;;;;15.30;5.70;;;;;;;2.82;43.66;101325.40;106159;1254;74292;-62
2024/03/12 03:02:42;;;;;;;11.70;5.70;;;;;;;2.80;43.75;101324.04;106130;1260;60453;-66
2024/03/12 03:05:10;;;;;;;16.10;7.50;;;;;;;2.80;43.85;101322.14;106361;1259;60444;-64
2024/03/12 03:07:42;;;;;;;18.30;6.40;;;;;;;2.82;43.93;101322.08;106154;1259;65440;-63
2024/03/12 03:10:10;;;;;;;15.80;6.90;;;;;;;2.84;43.97;101322.90;106273;1257;61534;-64
2024/03/12 03:12:41;;;;;;;15.70;6.30;;;;;;;2.84;44.06;101324.11;105717;1260;63757;-65
2024/03/12 03:15:11;;;;;;;16.70;7.20;;;;;;;2.83;44.09;101322.75;105668;1256;60601;-65
2024/03/12 03:17:42;;;;;;;14.20;6.90;;;;;;;2.84;44.19;101323.09;106370;1259;60447;-67
2024/03/12 03:20:17;;;;;;;14.40;6.20;;;;;;;2.85;44.14;101323.04;106047;1254;64920;-68
2024/03/12 03:22:44;;;;;;;15.00;6.70;;;;;;;2.84;44.11;101323.95;106145;1254;61959;-66
2024/03/12 03:25:13;;;;;;;15.60;5.80;;;;;;;2.83;44.20;101326.04;107487;1258;62500;-65
2024/03/12 03:27:41;;;;;;;11.80;5.70;;;;;;;2.84;44.26;101322.02;106139;1259;60382;-68
2024/03/12 03:30:12;;;;;;;11.60;5.60;;;;;;;2.84;44.28;101317.34;106183;1259;60428;-66
2024/03/12 03:32:40;;;;;;;15.40;8.40;;;;;;;2.85;44.33;101314.56;105532;1259;65030;-64
2024/03/12 03:35:08;;;;;;;21.90;9.10;;;;;;;2.85;44.40;101315.95;105376;1259;69648;-67
2024/03/12 03:37:37;;;;;;;14.40;6.20;;;;;;;2.87;44.55;101315.69;106352;1258;62526;-66
2024/03/12 03:40:09;;;;;;;14.60;6.80;;;;;;;2.89;44.58;101311.45;106004;1254;60379;-67
2024/03/12 03:42:37;;;;;;;13.10;6.80;;;;;;;2.92;44.54;101309.28;106336;1254;60418;-63
2024/03/12 03:45:05;;;;;;;15.60;6.20;;;;;;;2.93;44.57;101313.06;106053;1253;64907;-65
2024/03/12 03:47:34;;;;;;;19.10;7.30;;;;;;;2.94;44.72;101308.51;106539;1260;61666;-66
2024/03/12 03:50:03;;;;;;;13.50;6.40;;;;;;;2.95;44.72;101308.99;106072;1260;63871;-65
2024/03/12 03:52:30;;;;;;;18.20;7.20;;;;;;;2.96;44.63;101303.94;106151;1254;60440;-68
2024/03/12 03:54:58;;;;;;;13.70;6.60;;;;;;;2.97;44.65;101302.52;106147;1263;60422;-67
2024/03/12 03:57:25;;;;;;;17.40;7.20;;;;;;;2.97;44.53;101305.29;106193;1255;63653;-63
2024/03/12 03:59:53;;;;;;;14.40;6.20;;;;;;;2.98;44.54;101302.31;106182;1258;61282;-65
2024/03/12 04:02:21;;;;;;;20.30;7.00;;;;;;;3.00;44.55;101303.14;106200;1259;63772;-64
2024/03/12 04:04:49;;;;;;;17.40;6.50;;;;;;;2.99;44.48;101304.20;105222;1261;60448;-64
2024/03/12 04:07:19;;;;;;;13.30;6.10;;;;;;;2.98;44.51;101300.41;106174;1259;60793;-67
2024/03/12 04:09:47;;;;;;;16.50;6.80;;;;;;;2.98;44.52;101296.25;106010;1260;64974;-65
2024/03/12 04:12:15;;;;;;;14.20;5.10;;;;;;;2.97;44.63;101294.02;106185;1263;69166;-66
2024/03/12 04:14:42;;;;;;;16.90;7.40;;;;;;;2.99;44.70;101294.83;106152;1258;62422;-68
2024/03/12 04:17:10;;;;;;;18.30;6.60;;;;;;;3.00;44.79;101293.60;106268;1255;60476;-66
2024/03/12 04:19:37;;;;;;;15.90;6.40;;;;;;;3.01;44.93;101293.20;106173;1258;60575;-67
2024/03/12 04:22:05;;;;;;;13.80;6.80;;;;;;;3.04;44.84;101289.64;105289;1258;63670;-63
2024/03/12 04:24:33;;;;;;;14.80;6.30;;;;;;;3.06;44.80;101288.51;105656;1262;60383;-65
2024/03/12 04:27:02;;;;;;;12.80;5.60;;;;;;;3.07;44.78;101288.13;106121;1259;63762;-65
2024/03/12 04:29:29;;;;;;;17.10;5.90;;;;;;;3.08;44.81;101289.14;106143;1253;60556;-64
2024/03/12 04:31:57;;;;;;;12.50;6.00;;;;;;;3.09;44.79;101290.35;106120;1255;60501;-66
2024/03/12 04:34:24;;;;;;;14.10;5.50;;;;;;;3.09;44.69;101289.47;106135;1258;64907;-64
2024/03/12 04:36:52;;;;;;;18.40;7.80;;;;;;;3.09;44.67;101288.60;106228;1257;61476;-59
2024/03/12 04:39:32;;;;;;;12.80;5.50;;;;;;;3.09;44.67;101285.81;105164;1254;64388;-59
2024/03/12 04:42:02;;;;;;;11.90;6.10;;;;;;;3.10;44.76;101283.34;105226;1260;59665;-63
2024/03/12 04:44:29;;;;;;;15.70;6.60;;;;;;;3.11;44.80;101282.30;106495;1257;60444;-61
2024/03/12 04:46:57;;;;;;;15.80;6.90;;;;;;;3.12;44.80;101284.15;105952;1258;63730;-58
2024/03/12 04:49:26;;;;;;;10.70;5.90;;;;;;;3.14;44.83;101280.29;106014;1257;61383;-59
2024/03/12 04:51:55;;;;;;;14.10;7.20;;;;;;;3.16;44.92;101277.95;105939;1257;63764;-59
2024/03/12 04:54:22;;;;;;;15.70;7.90;;;;;;;3.18;44.88;101279.98;105302;1259;60440;-60
2024/03/12 04:56:50;;;;;;;14.70;6.80;;;;;;;3.19;44.84;101278.55;106020;1257;60380;-60
2024/03/12 04:59:18;;;;;;;21.80;7.40;;;;;;;3.21;44.72;101281.59;105130;1258;76597;-60
2024/03/12 05:01:49;;;;;;;11.60;6.50;;;;;;;3.25;44.58;101281.11;105464;1260;61709;-60
2024/03/12 05:04:22;;;;;;;17.90;5.60;;;;;;;3.30;44.57;101282.33;106289;1256;64971;-59
2024/03/12 05:06:50;;;;;;;13.50;5.90;;;;;;;3.35;44.47;101285.45;105307;1259;60546;-59
2024/03/12 05:09:19;;;;;;;14.90;6.50;;;;;;;3.38;44.42;101283.45;105232;1257;60728;-55
2024/03/12 05:11:47;;;;;;;14.10;6.70;;;;;;;3.40;44.49;101282.98;105168;1266;64878;-56
2024/03/12 05:14:15;;;;;;;15.00;7.00;;;;;;;3.44;44.57;101284.79;109183;1252;61296;-57
2024/03/12 05:16:43;;;;;;;11.20;4.80;;;;;;;3.49;44.58;101287.22;109240;1254;63682;-59
2024/03/12 05:19:11;;;;;;;16.50;6.30;;;;;;;3.55;44.59;101288.91;109184;1254;58495;-61
2024/03/12 05:21:39;;;;;;;12.70;6.30;;;;;;;3.62;44.53;101287.95;109224;1254;58368;-60
2024/03/12 05:24:08;;;;;;;11.20;4.70;;;;;;;3.68;44.46;101286.32;109292;1253;63718;-60
2024/03/12 05:26:44;;;;;;;15.40;6.00;;;;;;;3.75;44.35;101288.51;106388;1257;63892;-58
2024/03/12 05:29:13;;;;;;;14.00;5.80;;;;;;;3.80;44.13;101288.33;105306;1257;63775;-60
2024/03/12 05:31:43;;;;;;;13.40;5.40;;;;;;;3.84;43.96;101291.66;105073;1257;61089;-59
2024/03/12 05:34:18;;;;;;;12.30;5.80;;;;;;;3.88;43.97;101291.84;105176;1254;60533;-61
2024/03/12 05:36:51;;;;;;;10.50;5.90;;;;;;;3.93;43.91;101293.27;105167;1253;65179;-55
2024/03/12 05:39:26;;;;;;;16.20;6.20;;;;;;;3.95;43.69;101292.66;105290;1254;61379;-56
2024/03/12 05:50:16;;;;;;;15.60;6.90;;;;;;;4.07;43.64;101300.88;109188;1254;74868;-62
2024/03/12 05:52:48;;;;;;;24.00;6.50;;;;;;;4.12;43.49;101299.79;106485;1255;60559;-60
2024/03/12 05:55:16;;;;;;;9.40;5.00;;;;;;;4.17;43.41;101297.17;105033;1257;63845;-60
2024/03/12 05:57:44;;;;;;;11.80;5.20;;;;;;;4.23;43.36;101296.58;105086;1254;60594;-61
2024/03/12 06:00:12;;;;;;;13.60;5.80;;;;;;;4.28;43.21;101297.77;106323;1254;60570;-61
2024/03/12 06:02:41;;;;;;;10.30;5.40;;;;;;;4.34;43.33;101295.33;104908;1254;63644;-65
2024/03/12 06:05:12;;;;;;;12.10;5.10;;;;;;;4.39;43.32;101293.39;106334;1257;60441;-71
2024/03/12 06:07:41;;;;;;;10.60;4.60;;;;;;;4.43;43.30;101290.95;106342;1260;64203;-67
2024/03/12 06:10:09;;;;;;;13.70;5.50;;;;;;;4.46;43.16;101289.09;106513;1253;60550;-64
2024/03/12 06:12:38;;;;;;;12.90;5.00;;;;;;;4.50;43.02;101289.46;106536;1254;60360;-70
2024/03/12 06:15:14;;;;;;;10.90;4.80;;;;;;;4.55;42.99;101287.70;105955;1260;73641;-72
2024/03/12 06:17:43;;;;;;;11.50;5.00;;;;;;;4.59;42.87;101286.84;106111;1254;61358;-66
2024/03/12 06:20:12;;;;;;;14.60;6.20;;;;;;;4.62;43.00;101285.48;106235;1257;62464;-63
2024/03/12 06:22:44;;;;;;;12.50;5.40;;;;;;;4.66;43.00;101283.23;106128;1260;60565;-66
2024/03/12 06:25:32;;;;;;;12.40;6.20;;;;;;;4.71;42.84;101281.84;106171;1253;60622;-64
2024/03/12 06:28:05;;;;;;;15.90;5.50;;;;;;;4.74;42.82;101284.85;106290;1254;64910;-66
2024/03/12 06:30:35;;;;;;;15.50;5.10;;;;;;;4.79;42.82;101285.52;106263;1257;61460;-62
2024/03/12 06:33:02;;;;;;;13.40;4.80;;;;;;;4.82;42.65;101282.95;106254;1254;63892;-65
2024/03/12 06:35:30;;;;;;;14.60;5.70;;;;;;;4.85;42.62;101277.06;106206;1257;60556;-65
2024/03/12 06:37:58;;;;;;;11.00;4.90;;;;;;;4.88;42.60;101276.07;106137;1254;60431;-70
2024/03/12 06:40:26;;;;;;;19.30;6.90;;;;;;;4.92;42.57;101277.14;106180;1253;63812;-63
2024/03/12 06:42:55;;;;;;;9.70;4.80;;;;;;;4.96;42.54;101278.20;105108;1255;71466;-60
2024/03/12 06:45:23;;;;;;;12.50;6.60;;;;;;;4.99;42.42;101277.02;106763;1254;62525;-61
2024/03/12 06:47:51;;;;;;;17.60;6.80;;;;;;;5.02;42.33;101278.80;106269;1254;60419;-61
2024/03/12 06:50:19;;;;;;;14.70;6.10;;;;;;;5.04;42.29;101278.56;106295;1254;60290;-59
2024/03/12 06:52:50;;;;;;;11.70;5.80;;;;;;;5.04;42.31;101276.98;105296;1256;64931;-60
2024/03/12 06:55:23;;;;;;;13.00;5.40;;;;;;;5.05;42.46;101278.52;106830;1257;68871;-61
2024/03/12 06:57:54;;;;;;;12.00;5.60;;;;;;;5.06;42.46;101277.75;106181;1254;62507;-61
2024/03/12 07:00:32;;;;;;;17.20;7.10;;;;;;;5.09;42.48;101282.48;106226;1254;60507;-62
2024/03/12 07:03:03;;;;;;;11.30;5.30;;;;;;;5.15;42.59;101284.71;105471;1254;60562;-60
2024/03/12 07:05:33;;;;;;;12.20;5.70;;;;;;;5.21;42.56;101285.32;106713;1254;63668;-61
2024/03/12 07:08:00;;;;;;;12.80;5.70;;;;;;;5.27;42.56;101285.73;106135;1252;76071;-81
2024/03/12 07:10:29;;;;;;;17.10;7.60;;;;;;;5.32;42.53;101288.83;108003;1259;72131;-81
2024/03/12 07:12:59;;;;;;;15.80;6.40;;;;;;;5.36;42.65;101290.42;107357;1259;60441;-80
2024/03/12 07:15:28;;;;;;;14.40;8.00;;;;;;;5.39;42.42;101286.97;105811;1255;62137;-81
2024/03/12 07:17:56;;;;;;;15.50;7.00;;;;;;;5.44;42.47;101285.69;106219;1259;67220;-80
2024/03/12 07:20:24;;;;;;;13.80;6.10;;;;;;;5.48;42.52;101286.05;106725;1260;60534;-80
2024/03/12 07:22:51;;;;;;;23.50;6.40;;;;;;;5.51;42.52;101288.01;106523;1254;73682;-80
2024/03/12 07:25:20;;;;;;;12.50;5.70;;;;;;;5.54;42.44;101288.21;108302;1254;59241;-79
2024/03/12 07:27:48;;;;;;;14.20;5.80;;;;;;;5.57;42.31;101290.14;105754;1260;60441;-82
2024/03/12 07:30:16;;;;;;;13.50;6.30;;;;;;;5.62;42.36;101292.91;106744;1258;74065;-81
2024/03/12 07:32:46;;;;;;;12.70;6.70;;;;;;;5.65;42.24;101289.84;106300;1258;62508;-80
2024/03/12 07:35:17;;;;;;;11.90;5.90;;;;;;;5.67;42.28;101290.77;106107;1260;65749;-81
2024/03/12 07:37:46;;;;;;;13.80;6.00;;;;;;;5.71;42.38;101288.30;106205;1260;60691;-79
2024/03/12 07:40:15;;;;;;;14.90;6.60;;;;;;;5.75;42.36;101288.83;105944;1258;350950;-78
2024/03/12 07:53:47;;;;;;;16.10;6.30;;;;;;;5.93;42.71;101288.97;102819;1288;604480;-60
2024/03/12 07:56:15;;;;;;;17.50;7.00;;;;;;;6.58;41.78;101293.38;100380;1274;5046501;-59
2024/03/12 07:58:46;;;;;;;14.30;6.00;;;;;;;6.58;41.60;101296.18;104201;1266;59394;-59
2024/03/12 08:01:14;;;;;;;19.90;7.40;;;;;;;6.56;41.47;101292.60;104596;1266;63694;-59
2024/03/12 08:03:42;;;;;;;13.40;6.40;;;;;;;6.53;41.53;101290.83;104257;1270;60272;-60
2024/03/12 08:06:09;;;;;;;18.90;8.30;;;;;;;6.48;41.48;101290.15;104113;1269;64204;-60
2024/03/12 08:08:37;;;;;;;24.40;16.10;;;;;;;6.42;41.69;101293.23;104149;1272;59299;-63
2024/03/12 08:11:05;;;;;;;17.80;6.90;;;;;;;6.39;41.84;101292.17;104638;1267;59388;-57
2024/03/12 08:13:34;;;;;;;14.10;7.00;;;;;;;6.37;41.95;101288.27;104721;1271;74489;-62
2024/03/12 08:16:03;;;;;;;14.00;6.00;;;;;;;6.36;42.06;101290.41;104783;1268;61338;-61
2024/03/12 08:18:31;;;;;;;14.80;8.30;;;;;;;6.33;42.03;101291.41;107495;1266;74804;-68
2024/03/12 08:20:58;;;;;;;17.30;7.80;;;;;;;6.36;42.09;101292.83;105522;1266;59766;-67
2024/03/12 08:23:27;;;;;;;16.40;7.20;;;;;;;6.37;42.03;101291.23;103870;1274;59691;-67
2024/03/12 08:25:55;;;;;;;16.60;6.80;;;;;;;6.38;42.05;101293.79;104182;1265;75552;-67
2024/03/12 08:28:28;;;;;;;19.50;8.80;;;;;;;6.39;42.27;101289.55;104246;1272;69059;-66
2024/03/12 08:30:56;;;;;;;16.80;6.30;;;;;;;6.40;42.21;101285.84;105618;1271;66538;-70
2024/03/12 08:33:34;;;;;;;19.70;9.40;;;;;;;6.42;42.29;101284.72;106466;1270;59962;-66
2024/03/12 08:36:03;;;;;;;16.60;7.50;;;;;;;6.42;42.39;101284.86;108203;1266;57664;-63
2024/03/12 08:38:31;;;;;;;17.60;10.60;;;;;;;6.45;42.37;101289.95;108569;1262;75273;-66
2024/03/12 08:40:58;;;;;;;27.30;17.40;;;;;;;6.49;42.45;101293.24;108558;1264;60337;-65
2024/03/12 08:43:26;;;;;;;14.90;6.80;;;;;;;6.56;42.33;101290.14;108510;1264;64138;-68
2024/03/12 08:45:54;;;;;;;15.40;7.80;;;;;;;6.61;42.18;101293.91;108440;1262;60362;-70
2024/03/12 08:48:21;;;;;;;16.20;8.50;;;;;;;6.64;42.02;101289.38;105727;1263;59497;-69
2024/03/12 08:50:50;;;;;;;17.70;8.20;;;;;;;6.66;42.16;101287.71;105599;1267;65006;-66
2024/03/12 08:53:18;;;;;;;13.80;8.20;;;;;;;6.68;42.18;101289.19;105345;1265;61568;-69
2024/03/12 08:55:45;;;;;;;17.20;8.50;;;;;;;6.69;42.32;101290.19;104517;1277;66632;-64
2024/03/12 08:58:13;;;;;;;18.10;9.20;;;;;;;6.70;42.38;101292.58;104680;1268;59714;-69
2024/03/12 09:00:41;;;;;;;16.70;8.00;;;;;;;6.72;42.42;101292.50;104663;1265;59691;-63
2024/03/12 09:03:10;;;;;;;12.00;6.10;;;;;;;6.72;42.47;101289.71;105737;1268;75202;-69
2024/03/12 09:05:38;;;;;;;19.80;9.40;;;;;;;6.70;42.45;101291.88;105145;1267;72594;-68
2024/03/12 09:08:07;;;;;;;25.20;17.30;;;;;;;6.67;42.52;101292.40;104990;1270;73615;-62
2024/03/12 09:10:36;;;;;;;21.60;8.40;;;;;;;6.68;42.57;101288.17;104887;1268;59671;-66
2024/03/12 09:13:04;;;;;;;18.60;9.10;;;;;;;6.71;42.60;101287.65;105811;1260;59646;-62
2024/03/12 09:15:32;;;;;;;17.20;8.70;;;;;;;6.76;42.53;101286.91;106346;1256;63358;-62
2024/03/12 09:18:06;;;;;;;16.20;9.50;;;;;;;6.78;42.33;101287.66;105028;1260;72621;-62
2024/03/12 09:20:36;;;;;;;22.10;9.50;;;;;;;6.79;42.19;101288.34;105523;1260;63830;-62
2024/03/12 09:23:04;;;;;;;21.00;8.30;;;;;;;6.79;42.09;101282.23;106425;1260;59937;-56
2024/03/12 09:25:32;;;;;;;20.20;8.20;;;;;;;6.81;42.07;101283.36;106347;1259;59665;-64
2024/03/12 09:28:01;;;;;;;16.10;7.90;;;;;;;6.82;41.99;101281.89;105286;1261;75316;-63
2024/03/12 09:30:29;;;;;;;19.30;9.20;;;;;;;6.82;41.96;101282.38;106321;1260;70566;-62
2024/03/12 09:32:56;;;;;;;23.50;10.30;;;;;;;6.81;41.87;101281.05;104990;1262;63913;-62
2024/03/12 09:35:24;;;;;;;16.00;9.40;;;;;;;6.80;41.98;101279.53;104975;1254;61309;-62
2024/03/12 09:37:53;;;;;;;29.40;18.50;;;;;;;6.80;41.91;101277.66;105060;1259;62137;-62
2024/03/12 09:40:20;;;;;;;15.00;7.50;;;;;;;6.81;41.96;101276.00;105640;1258;65071;-64
2024/03/12 09:42:48;;;;;;;21.30;8.80;;;;;;;6.82;42.11;101273.32;105778;1257;63675;-60
2024/03/12 09:45:16;;;;;;;15.30;8.00;;;;;;;6.81;42.22;101277.39;105030;1262;74828;-62
2024/03/12 09:47:44;;;;;;;18.30;9.60;;;;;;;6.80;42.35;101273.46;104783;1262;59665;-62
2024/03/12 09:50:16;;;;;;;15.90;8.40;;;;;;;6.80;42.48;101274.49;106027;1261;59639;-64
2024/03/12 09:52:46;;;;;;;16.00;7.30;;;;;;;6.79;42.35;101276.10;105907;1261;66492;-68
2024/03/12 09:55:14;;;;;;;17.70;7.30;;;;;;;6.78;42.31;101273.71;104961;1259;63456;-67
2024/03/12 09:57:46;;;;;;;31.30;20.70;;;;;;;6.75;42.35;101275.94;108968;1255;62623;-68
2024/03/12 10:00:33;;;;;;;18.80;9.50;;;;;;;6.76;42.42;101270.48;108919;1254;61486;-67
2024/03/12 10:03:01;;;;;;;17.50;7.70;;;;;;;6.80;42.53;101275.39;108942;1260;60930;-71
2024/03/12 10:05:28;;;;;;;27.00;17.60;;;;;;;6.82;42.53;101277.86;108977;1259;75814;-63
2024/03/12 10:08:08;;;;;;;13.50;7.30;;;;;;;6.87;42.95;101278.66;109000;1259;66548;-65
2024/03/12 10:10:38;;;;;;;17.40;6.20;;;;;;;6.87;43.69;101273.44;108706;1256;73659;-61
2024/03/12 10:13:17;;;;;;;18.30;6.80;;;;;;;6.82;44.34;101275.58;105839;1257;61611;-68
2024/03/12 10:15:58;;;;;;;17.00;7.30;;;;;;;6.77;44.75;101273.77;105043;1260;60720;-64
2024/03/12 10:18:29;;;;;;;15.40;7.10;;;;;;;6.72;45.26;101272.61;105700;1256;66364;-61
2024/03/12 10:20:58;;;;;;;17.20;7.80;;;;;;;6.68;45.53;101275.09;105902;1260;60297;-67
2024/03/12 10:23:27;;;;;;;16.70;7.70;;;;;;;6.64;45.76;101273.52;106133;1260;74773;-66
2024/03/12 10:26:15;;;;;;;17.10;7.30;;;;;;;6.63;45.81;101269.03;107189;1258;59662;-67
2024/03/12 10:28:45;;;;;;;15.80;7.40;;;;;;;6.63;45.95;101267.11;106025;1255;62511;-63
2024/03/12 10:31:14;;;;;;;18.80;7.00;;;;;;;6.64;45.99;101265.17;106007;1260;75311;-61
2024/03/12 10:33:48;;;;;;;15.10;7.70;;;;;;;6.62;46.20;101264.23;106173;1260;72675;-62
2024/03/12 10:36:30;;;;;;;16.50;7.40;;;;;;;6.62;46.08;101260.73;105481;1261;64853;-62
2024/03/12 10:38:59;;;;;;;14.40;7.10;;;;;;;6.64;45.48;101257.83;105962;1261;59751;-62
2024/03/12 10:41:27;;;;;;;13.90;6.70;;;;;;;6.66;44.95;101254.43;106075;1257;59322;-61
2024/03/12 10:44:02;;;;;;;25.40;14.90;;;;;;;6.68;44.78;101254.70;106033;1257;66315;-61
2024/03/12 10:46:35;;;;;;;17.20;6.30;;;;;;;6.69;44.45;101245.20;106331;1258;72184;-63
2024/03/12 10:49:03;;;;;;;13.00;5.40;;;;;;;6.70;44.41;101243.75;105349;1261;64770;-66
2024/03/12 10:51:30;;;;;;;13.50;5.30;;;;;;;6.71;44.49;101246.84;105640;1259;61475;-65
2024/03/12 10:53:58;;;;;;;15.60;7.40;;;;;;;6.71;45.10;101248.41;105424;1256;59728;-66
2024/03/12 10:56:26;;;;;;;20.20;9.40;;;;;;;6.68;45.62;101256.44;105161;1260;63334;-68
2024/03/12 10:58:54;;;;;;;12.70;6.60;;;;;;;6.61;46.28;101257.64;106582;1262;63454;-68
2024/03/12 11:01:22;;;;;;;13.20;5.40;;;;;;;6.53;46.93;101257.16;105879;1261;74839;-67
2024/03/12 11:03:56;;;;;;;12.10;5.80;;;;;;;6.44;47.61;101257.56;105887;1254;59698;-69
2024/03/12 11:06:25;;;;;;;12.10;5.00;;;;;;;6.34;48.52;101257.39;105421;1259;59554;-66
2024/03/12 11:08:54;;;;;;;10.70;5.40;;;;;;;6.24;49.27;101253.84;105746;1257;65401;-63
2024/03/12 11:11:23;;;;;;;13.00;5.10;;;;;;;6.16;49.93;101254.78;105040;1263;71776;-61
2024/03/12 11:13:51;;;;;;;13.10;5.40;;;;;;;6.07;50.56;101253.58;106568;1260;64283;-60
2024/03/12 11:16:19;;;;;;;12.60;6.60;;;;;;;5.97;51.10;101254.08;105140;1260;59770;-62
2024/03/12 11:18:50;;;;;;;10.90;5.00;;;;;;;5.88;51.53;101253.23;106140;1259;59680;-66
2024/03/12 11:21:30;;;;;;;10.70;4.90;;;;;;;5.78;52.23;101254.39;105050;1260;75614;-65
2024/03/12 11:23:58;;;;;;;11.60;4.90;;;;;;;5.74;52.47;101252.86;105959;1256;60602;-61
2024/03/12 11:26:27;;;;;;;10.20;4.30;;;;;;;5.74;52.82;101254.40;105416;1260;74778;-61
2024/03/12 11:28:58;;;;;;;12.70;4.40;;;;;;;5.76;52.97;101253.80;106016;1256;62970;-63
2024/03/12 11:31:34;;;;;;;12.30;5.40;;;;;;;5.80;53.18;101249.47;105792;1259;59683;-64
2024/03/12 11:34:02;;;;;;;12.00;4.40;;;;;;;5.85;53.36;101251.66;105706;1256;66410;-65
2024/03/12 11:36:31;;;;;;;12.20;5.40;;;;;;;5.86;53.50;101251.80;105592;1256;64228;-65
2024/03/12 11:39:04;;;;;;;14.60;5.20;;;;;;;5.81;53.54;101254.44;107127;1260;66335;-68
2024/03/12 11:42:00;;;;;;;8.80;5.30;;;;;;;5.74;53.81;101252.16;105806;1257;60302;-65
2024/03/12 11:44:55;;;;;;;13.80;5.20;;;;;;;5.65;53.99;101254.11;105089;1259;61012;-64
2024/03/12 11:47:40;;;;;;;11.40;5.70;;;;;;;5.56;54.24;101252.95;107363;1260;73196;-60